createdAt,value
2018-02-21T00:01:52.243Z,26.90
2018-02-21T00:04:26.959Z,28.07
2018-02-21T00:07:01.383Z,26.77
2018-02-21T00:09:35.603Z,26.33
2018-02-21T00:12:10.316Z,25.20
2018-02-21T00:14:45.973Z,25.13
2018-02-21T00:17:20.092Z,26.57
2018-02-21T00:19:54.732Z,25.40
2018-02-21T00:22:28.921Z,25.73
2018-02-21T00:25:03.540Z,27.27
2018-02-21T00:27:38.360Z,25.87
2018-02-21T00:30:12.176Z,25.80
2018-02-21T00:32:46.389Z,26.80
2018-02-21T00:35:21.035Z,25.47
2018-02-21T00:37:56.447Z,25.53
2018-02-21T00:40:30.897Z,25.40
2018-02-21T00:43:05.733Z,26.23
2018-02-21T00:45:40.248Z,27.23
2018-02-21T00:48:14.128Z,24.50
2018-02-21T00:50:48.260Z,25.23
2018-02-21T00:53:22.254Z,26.43
2018-02-21T00:55:56.849Z,26.73
2018-02-21T00:58:30.580Z,26.63
2018-02-21T01:01:05.215Z,27.27
2018-02-21T01:03:39.402Z,26.17
2018-02-21T01:06:13.764Z,25.40
2018-02-21T01:08:48.585Z,27.93
2018-02-21T01:11:23.255Z,27.93
2018-02-21T01:13:58.328Z,25.40
2018-02-21T01:16:32.021Z,28.43
2018-02-21T01:19:06.240Z,28.57
2018-02-21T01:21:40.040Z,27.60
2018-02-21T01:24:14.970Z,27.73
2018-02-21T01:26:50.030Z,28.27
2018-02-21T01:29:24.260Z,27.73
2018-02-21T01:31:58.344Z,28.20
2018-02-21T01:34:33.089Z,27.37
2018-02-21T01:37:07.680Z,26.90
2018-02-21T01:39:42.305Z,28.60
2018-02-21T01:42:17.240Z,27.37
2018-02-21T01:44:51.255Z,28.43
2018-02-21T01:47:26.896Z,27.90
2018-02-21T01:50:00.702Z,27.47
2018-02-21T01:52:35.913Z,28.20
2018-02-21T01:55:10.562Z,26.47
2018-02-21T01:57:44.167Z,27.03
2018-02-21T02:00:18.072Z,27.40
2018-02-21T02:02:52.874Z,28.37
2018-02-21T02:05:27.011Z,26.87
2018-02-21T02:08:00.700Z,26.40
2018-02-21T02:10:35.716Z,28.13
2018-02-21T02:13:10.276Z,27.80
2018-02-21T02:15:44.300Z,27.87
2018-02-21T02:18:18.099Z,27.00
2018-02-21T02:20:51.921Z,28.30
2018-02-21T02:23:25.888Z,28.13
2018-02-21T02:26:00.246Z,27.60
2018-02-21T02:28:35.055Z,26.93
2018-02-21T02:31:09.372Z,27.37
2018-02-21T02:33:43.341Z,26.73
2018-02-21T02:36:17.266Z,27.70
2018-02-21T02:39:03.586Z,27.90
2018-02-21T02:41:37.681Z,27.37
2018-02-21T02:44:11.696Z,28.67
2018-02-21T02:46:46.434Z,24.40
2018-02-21T02:49:20.244Z,23.63
2018-02-21T02:51:55.170Z,24.53
2018-02-21T02:54:30.699Z,24.17
2018-02-21T02:57:05.021Z,25.43
2018-02-21T02:59:38.818Z,23.50
2018-02-21T03:02:12.628Z,24.13
2018-02-21T03:04:47.370Z,22.20
2018-02-21T03:07:22.102Z,24.17
2018-02-21T03:09:57.009Z,24.30
2018-02-21T03:12:31.636Z,24.03
2018-02-21T03:15:06.996Z,25.23
2018-02-21T03:17:40.972Z,23.63
2018-02-21T03:20:16.045Z,25.00
2018-02-21T03:22:50.559Z,24.40
2018-02-21T03:25:26.501Z,23.60
2018-02-21T03:28:01.103Z,27.13
2018-02-21T03:30:35.663Z,24.33
2018-02-21T03:33:10.260Z,26.30
2018-02-21T03:35:44.684Z,25.20
2018-02-21T03:38:19.295Z,26.13
2018-02-21T03:40:52.905Z,25.97
2018-02-21T03:43:28.255Z,27.03
2018-02-21T03:46:02.144Z,27.80
2018-02-21T03:48:37.585Z,26.20
2018-02-21T03:51:11.756Z,26.03
2018-02-21T03:53:46.634Z,26.30
2018-02-21T03:56:20.639Z,26.87
2018-02-21T03:58:55.092Z,25.90
2018-02-21T04:01:30.001Z,27.43
2018-02-21T04:04:04.004Z,26.83
2018-02-21T04:06:37.915Z,26.97
2018-02-21T04:09:11.705Z,26.83
2018-02-21T04:11:46.452Z,26.37
2018-02-21T04:14:20.968Z,28.03
2018-02-21T04:16:54.995Z,29.07
2018-02-21T04:19:28.879Z,28.07
2018-02-21T04:22:03.517Z,28.17
2018-02-21T04:24:37.639Z,28.23
2018-02-21T04:27:12.237Z,26.07
2018-02-21T04:29:47.208Z,29.27
2018-02-21T04:32:21.194Z,29.10
2018-02-21T04:34:56.229Z,29.40
2018-02-21T04:37:29.922Z,29.37
2018-02-21T04:40:03.732Z,28.27
2018-02-21T04:42:37.806Z,29.93
2018-02-21T04:45:11.432Z,29.17
2018-02-21T04:47:45.443Z,31.10
2018-02-21T04:50:19.804Z,30.17
2018-02-21T04:52:54.296Z,30.90
2018-02-21T04:55:33.728Z,30.80
2018-02-21T04:58:13.872Z,30.07
2018-02-21T05:00:48.501Z,29.53
2018-02-21T05:03:22.404Z,33.10
2018-02-21T05:05:57.485Z,30.70
2018-02-21T05:08:32.667Z,30.53
2018-02-21T05:11:07.220Z,29.57
2018-02-21T05:13:41.399Z,30.67
2018-02-21T05:16:15.213Z,30.50
2018-02-21T05:18:49.218Z,29.27
2018-02-21T05:21:23.031Z,30.57
2018-02-21T05:23:58.164Z,29.83
2018-02-21T05:26:32.056Z,31.60
2018-02-21T05:29:07.072Z,29.90
2018-02-21T05:31:41.932Z,29.43
2018-02-21T05:34:17.378Z,27.67
2018-02-21T05:36:51.791Z,28.67
2018-02-21T05:39:27.034Z,27.63
2018-02-21T05:42:00.936Z,27.13
2018-02-21T05:44:35.241Z,28.10
2018-02-21T05:47:09.173Z,25.63
2018-02-21T05:49:43.898Z,25.67
2018-02-21T05:52:18.027Z,24.37
2018-02-21T05:54:52.422Z,26.87
2018-02-21T05:57:26.647Z,25.90
2018-02-21T06:00:00.751Z,25.43
2018-02-21T06:02:35.993Z,26.80
2018-02-21T06:05:09.702Z,24.63
2018-02-21T06:07:43.504Z,25.23
2018-02-21T06:10:17.643Z,22.03
2018-02-21T06:12:52.846Z,26.27
2018-02-21T06:15:26.875Z,25.90
2018-02-21T06:18:02.095Z,25.40
2018-02-21T06:20:42.539Z,25.67
2018-02-21T06:23:16.971Z,25.17
2018-02-21T06:25:51.392Z,26.47
2018-02-21T06:28:25.723Z,25.07
2018-02-21T06:31:00.332Z,27.70
2018-02-21T06:33:34.341Z,25.57
2018-02-21T06:36:08.364Z,26.60
2018-02-21T06:38:42.440Z,26.33
2018-02-21T06:41:17.291Z,26.13
2018-02-21T06:43:51.315Z,26.43
2018-02-21T06:46:25.309Z,26.90
2018-02-21T07:02:31.771Z,30.50
2018-02-21T07:05:10.704Z,28.67
2018-02-21T07:07:47.875Z,29.40
2018-02-21T07:10:22.488Z,29.30
2018-02-21T07:12:57.338Z,29.73
2018-02-21T07:15:31.385Z,30.07
2018-02-21T07:18:05.565Z,29.37
2018-02-21T07:20:39.410Z,31.53
2018-02-21T07:23:13.775Z,30.00
2018-02-21T07:25:48.809Z,29.13
2018-02-21T07:28:22.600Z,30.67
2018-02-21T07:30:57.250Z,30.30
2018-02-21T07:33:31.155Z,31.40
2018-02-21T07:36:05.466Z,30.83
2018-02-21T07:38:39.375Z,31.93
2018-02-21T07:41:14.585Z,32.67
2018-02-21T07:43:48.605Z,29.80
2018-02-21T07:46:22.419Z,33.23
2018-02-21T07:48:56.725Z,32.17
2018-02-21T07:51:31.144Z,31.73
2018-02-21T07:54:05.385Z,34.30
2018-02-21T07:56:40.096Z,33.53
2018-02-21T07:59:14.499Z,32.47
2018-02-21T08:01:48.923Z,31.57
2018-02-21T08:04:23.753Z,34.13
2018-02-21T08:06:58.376Z,35.13
2018-02-21T08:09:33.033Z,34.83
2018-02-21T08:12:07.136Z,34.23
2018-02-21T08:14:41.831Z,34.03
2018-02-21T08:17:16.870Z,34.37
2018-02-21T08:19:50.678Z,35.80
2018-02-21T08:22:26.032Z,34.33
2018-02-21T08:25:00.540Z,36.53
2018-02-21T08:27:35.569Z,35.00
2018-02-21T08:30:10.403Z,34.63
2018-02-21T08:32:44.642Z,34.77
2018-02-21T08:35:18.340Z,34.57
2018-02-21T08:37:53.355Z,35.33
2018-02-21T08:40:27.458Z,37.47
2018-02-21T08:43:01.873Z,35.83
2018-02-21T08:45:36.718Z,36.23
2018-02-21T08:48:10.627Z,35.50
2018-02-21T08:50:45.031Z,34.10
2018-02-21T08:53:19.052Z,36.43
2018-02-21T08:55:52.663Z,35.47
2018-02-21T08:58:26.862Z,36.57
2018-02-21T09:01:00.693Z,37.13
2018-02-21T09:03:35.596Z,35.90
2018-02-21T09:06:09.911Z,37.63
2018-02-21T09:08:44.536Z,38.30
2018-02-21T09:11:18.239Z,36.90
2018-02-21T09:13:52.027Z,37.53
2018-02-21T09:16:27.099Z,35.60
2018-02-21T09:19:00.986Z,35.60
2018-02-21T09:21:35.538Z,38.03
2018-02-21T09:24:10.126Z,35.17
2018-02-21T09:26:44.877Z,35.20
2018-02-21T09:29:19.380Z,38.13
2018-02-21T09:31:53.203Z,35.73
2018-02-21T09:34:27.907Z,39.40
2018-02-21T09:37:01.569Z,39.70
2018-02-21T09:39:37.054Z,35.90
2018-02-21T09:42:11.060Z,36.57
2018-02-21T09:44:45.911Z,39.93
2018-02-21T09:47:20.009Z,38.37
2018-02-21T09:49:53.893Z,39.17
2018-02-21T09:52:28.517Z,38.73
2018-02-21T09:55:03.878Z,37.43
2018-02-21T09:57:38.695Z,39.13
2018-02-21T10:00:12.317Z,38.13
2018-02-21T10:02:47.447Z,37.47
2018-02-21T10:05:21.960Z,37.93
2018-02-21T10:07:57.501Z,37.60
2018-02-21T10:10:32.140Z,38.47
2018-02-21T10:13:06.263Z,35.70
2018-02-21T10:15:40.879Z,38.70
2018-02-21T10:18:16.216Z,36.83
2018-02-21T10:20:50.145Z,36.30
2018-02-21T10:23:24.964Z,38.23
2018-02-21T10:25:59.867Z,37.73
2018-02-21T10:28:34.924Z,36.53
2018-02-21T10:31:09.665Z,38.17
2018-02-21T10:33:43.347Z,36.73
2018-02-21T10:36:17.954Z,37.60
2018-02-21T10:38:52.762Z,38.30
2018-02-21T10:41:28.121Z,35.03
2018-02-21T10:44:02.529Z,36.37
2018-02-21T10:46:37.815Z,35.03
2018-02-21T10:49:11.585Z,36.27
2018-02-21T10:51:46.220Z,37.23
2018-02-21T10:54:19.913Z,37.13
2018-02-21T10:56:53.726Z,35.97
2018-02-21T10:59:28.257Z,36.80
2018-02-21T11:02:02.027Z,35.17
2018-02-21T11:04:36.460Z,37.27
2018-02-21T11:07:11.090Z,37.57
2018-02-21T11:09:44.889Z,34.80
2018-02-21T11:12:19.443Z,34.73
2018-02-21T11:14:53.304Z,37.63
2018-02-21T11:17:27.944Z,37.27
2018-02-21T11:20:01.748Z,37.30
2018-02-21T11:22:36.476Z,37.87
2018-02-21T11:25:10.876Z,34.17
2018-02-21T11:27:45.431Z,35.27
2018-02-21T11:30:19.131Z,36.33
2018-02-21T11:32:53.636Z,37.13
2018-02-21T11:35:28.369Z,35.50
2018-02-21T11:38:02.980Z,34.33
2018-02-21T11:40:37.816Z,34.73
2018-02-21T11:43:11.920Z,35.57
2018-02-21T11:45:45.850Z,35.37
2018-02-21T11:48:19.632Z,30.10
2018-02-21T11:50:54.401Z,35.57
2018-02-21T11:53:28.980Z,35.70
2018-02-21T11:56:03.399Z,33.67
2018-02-21T11:58:38.051Z,34.23
2018-02-21T12:01:12.033Z,32.67
2018-02-21T12:03:46.215Z,34.93
2018-02-21T12:06:19.948Z,34.03
2018-02-21T12:08:53.577Z,33.17
2018-02-21T12:11:27.774Z,33.97
2018-02-21T12:14:01.775Z,31.17
2018-02-21T12:16:37.638Z,32.30
2018-02-21T12:19:12.255Z,31.10
2018-02-21T12:21:47.912Z,31.47
2018-02-21T12:24:21.511Z,32.33
2018-02-21T12:26:55.615Z,33.77
2018-02-21T12:29:31.076Z,33.70
2018-02-21T12:32:09.057Z,33.67
2018-02-21T12:34:43.392Z,32.00
2018-02-21T12:37:18.923Z,35.57
2018-02-21T12:39:52.721Z,33.13
2018-02-21T12:42:27.552Z,32.43
2018-02-21T12:45:01.891Z,31.03
2018-02-21T12:47:36.910Z,30.37
2018-02-21T12:50:12.119Z,30.67
2018-02-21T12:52:47.997Z,30.33
2018-02-21T12:55:21.812Z,32.43
2018-02-21T12:57:56.119Z,32.13
2018-02-21T13:00:29.911Z,30.10
2018-02-21T13:03:07.530Z,32.13
2018-02-21T13:05:42.438Z,31.83
2018-02-21T13:08:17.359Z,31.13
2018-02-21T13:10:52.160Z,31.73
2018-02-21T13:13:26.746Z,31.13
2018-02-21T13:16:00.826Z,30.07
2018-02-21T13:18:36.382Z,31.13
2018-02-21T13:21:11.354Z,31.27
2018-02-21T13:23:45.633Z,30.70
2018-02-21T13:26:19.919Z,33.27
2018-02-21T13:28:55.560Z,32.03
2018-02-21T13:31:30.336Z,33.83
2018-02-21T13:34:05.829Z,32.57
2018-02-21T13:36:40.068Z,32.70
2018-02-21T13:39:15.651Z,32.10
2018-02-21T13:41:50.122Z,33.93
2018-02-21T13:44:24.258Z,35.10
2018-02-21T13:46:58.975Z,33.53
2018-02-21T13:49:32.671Z,31.00
2018-02-21T13:52:08.435Z,37.23
2018-02-21T13:54:42.232Z,30.07
2018-02-21T13:57:17.759Z,30.30
2018-02-21T13:59:51.432Z,33.10
2018-02-21T14:02:26.514Z,33.77
2018-02-21T14:05:01.040Z,32.63
2018-02-21T14:07:35.224Z,32.90
2018-02-21T14:10:10.495Z,32.17
2018-02-21T14:12:45.120Z,31.77
2018-02-21T14:15:20.240Z,32.17
2018-02-21T14:17:55.369Z,31.73
2018-02-21T14:20:29.304Z,31.27
2018-02-21T14:23:03.000Z,30.20
2018-02-21T14:25:37.520Z,31.23
2018-02-21T14:28:11.742Z,30.97
2018-02-21T14:30:46.254Z,30.27
2018-02-21T14:46:28.101Z,33.47
2018-02-21T14:49:02.544Z,30.83
2018-02-21T14:51:36.622Z,33.63
2018-02-21T14:54:11.077Z,31.17
2018-02-21T14:56:46.317Z,30.40
2018-02-21T14:59:20.097Z,30.70
2018-02-21T15:01:55.050Z,30.30
2018-02-21T15:04:30.795Z,30.97
2018-02-21T15:07:05.013Z,31.13
2018-02-21T15:09:39.028Z,27.30
2018-02-21T15:12:12.711Z,29.90
2018-02-21T15:14:47.448Z,30.87
2018-02-21T15:17:21.266Z,29.33
2018-02-21T15:19:55.598Z,30.30
2018-02-21T15:22:30.608Z,29.40
2018-02-21T15:25:05.515Z,29.87
2018-02-21T15:27:39.558Z,31.70
2018-02-21T15:30:14.206Z,28.60
2018-02-21T15:32:48.692Z,29.43
2018-02-21T15:35:23.398Z,30.10
2018-02-21T15:37:57.200Z,29.70
2018-02-21T15:40:32.688Z,28.50
2018-02-21T15:43:06.754Z,28.23
2018-02-21T15:45:41.844Z,28.50
2018-02-21T15:48:17.130Z,28.40
2018-02-21T16:03:59.006Z,28.00
2018-02-21T16:06:32.624Z,27.30
2018-02-21T16:09:07.327Z,26.43
2018-02-21T16:11:42.773Z,27.77
2018-02-21T16:14:18.717Z,27.20
2018-02-21T16:16:52.427Z,28.20
2018-02-21T16:19:28.284Z,31.60
2018-02-21T16:22:03.008Z,31.30
2018-02-21T16:24:37.231Z,31.50
2018-02-21T16:27:11.129Z,31.33
2018-02-21T16:29:46.392Z,32.20
2018-02-21T16:32:20.429Z,30.93
2018-02-21T16:34:54.788Z,31.10
2018-02-21T16:37:29.512Z,30.90
2018-02-21T16:40:04.064Z,30.97
2018-02-21T16:42:39.079Z,30.57
2018-02-21T16:45:12.784Z,31.80
2018-02-21T16:47:47.183Z,30.57
2018-02-21T16:50:20.891Z,29.40
2018-02-21T16:52:56.051Z,32.00
2018-02-21T16:55:29.959Z,31.33
2018-02-21T16:58:04.050Z,35.30
2018-02-21T17:00:38.956Z,29.00
2018-02-21T17:03:12.905Z,29.53
2018-02-21T17:05:48.129Z,29.77
2018-02-21T17:08:22.136Z,29.87
2018-02-21T17:10:56.976Z,29.57
2018-02-21T17:13:31.591Z,29.20
2018-02-21T17:16:08.485Z,30.13
2018-02-21T17:18:42.267Z,28.77
2018-02-21T17:21:18.340Z,30.30
2018-02-21T17:23:54.486Z,29.50
2018-02-21T17:26:29.208Z,28.53
2018-02-21T17:29:04.432Z,28.90
2018-02-21T17:31:38.871Z,30.13
2018-02-21T17:34:12.896Z,28.23
2018-02-21T17:36:47.919Z,29.53
2018-02-21T17:39:23.067Z,28.57
2018-02-21T17:42:00.531Z,29.03
2018-02-21T17:44:34.351Z,29.43
2018-02-21T17:47:11.661Z,28.20
2018-02-21T17:49:46.282Z,28.90
2018-02-21T17:52:20.073Z,29.30
2018-02-21T17:54:53.875Z,30.50
2018-02-21T17:57:29.039Z,27.47
2018-02-21T18:00:03.049Z,31.07
2018-02-21T18:02:37.652Z,31.10
2018-02-21T18:05:11.571Z,30.23
2018-02-21T18:07:46.428Z,28.00
2018-02-21T18:10:20.203Z,28.43
2018-02-21T18:12:53.973Z,27.93
2018-02-21T18:15:28.719Z,28.67
2018-02-21T18:18:02.643Z,26.00
2018-02-21T18:20:37.263Z,28.77
2018-02-21T18:23:11.559Z,28.87
2018-02-21T18:25:47.615Z,27.87
2018-02-21T18:28:21.316Z,28.40
2018-02-21T18:30:57.083Z,26.87
2018-02-21T18:33:31.288Z,27.53
2018-02-21T18:36:07.146Z,27.97
2018-02-21T18:38:41.586Z,28.57
2018-02-21T18:41:15.675Z,27.40
2018-02-21T18:43:50.158Z,27.70
2018-02-21T18:46:24.922Z,27.27
2018-02-21T18:48:59.119Z,27.77
2018-02-21T18:51:33.052Z,26.83
2018-02-21T18:54:11.745Z,26.37
2018-02-21T18:56:50.379Z,26.30
2018-02-21T18:59:26.906Z,25.20
2018-02-21T19:02:01.260Z,26.63
2018-02-21T19:04:35.688Z,25.40
2018-02-21T19:07:09.407Z,26.20
2018-02-21T19:09:45.327Z,26.07
2018-02-21T19:12:19.862Z,26.40
2018-02-21T19:14:55.500Z,25.00
2018-02-21T19:17:30.136Z,26.20
2018-02-21T19:20:04.466Z,25.73
2018-02-21T19:22:38.649Z,27.47
2018-02-21T19:25:12.448Z,26.13
2018-02-21T19:27:46.486Z,25.53
2018-02-21T19:30:21.418Z,25.67
2018-02-21T19:32:57.244Z,26.83
2018-02-21T19:35:31.072Z,27.03
2018-02-21T19:38:05.193Z,26.07
2018-02-21T19:40:39.391Z,25.70
2018-02-21T19:43:14.111Z,25.27
2018-02-21T19:45:48.996Z,23.30
2018-02-21T19:48:23.564Z,22.93
2018-02-21T19:50:58.370Z,23.23
2018-02-21T19:53:32.446Z,22.77
2018-02-21T19:56:09.274Z,23.50
2018-02-21T19:58:44.117Z,23.03
2018-02-21T20:01:18.623Z,23.17
2018-02-21T20:03:53.353Z,23.77
2018-02-21T20:06:28.796Z,24.73
2018-02-21T20:09:02.807Z,22.43
2018-02-21T20:11:37.941Z,23.07
2018-02-21T20:14:12.757Z,23.80
2018-02-21T20:16:48.320Z,22.20
2018-02-21T20:19:22.091Z,22.50
2018-02-21T20:21:58.795Z,23.60
2018-02-21T20:24:32.588Z,23.03
2018-02-21T20:27:06.995Z,23.80
2018-02-21T20:29:41.333Z,22.13
2018-02-21T20:32:16.976Z,22.07
2018-02-21T20:34:51.195Z,22.70
2018-02-21T20:37:25.223Z,23.03
2018-02-21T20:39:59.940Z,23.43
2018-02-21T20:42:33.943Z,22.30
2018-02-21T20:45:11.906Z,21.67
2018-02-21T20:47:46.453Z,21.80
2018-02-21T20:50:20.996Z,22.53
2018-02-21T20:52:58.055Z,23.03
2018-02-21T20:55:32.492Z,23.70
2018-02-21T20:58:09.139Z,24.70
2018-02-21T21:00:42.859Z,22.93
2018-02-21T21:03:19.299Z,23.67
2018-02-21T21:05:53.867Z,24.33
2018-02-21T21:08:28.387Z,23.47
2018-02-21T21:11:02.270Z,23.40
2018-02-21T21:13:39.051Z,23.40
2018-02-21T21:16:13.946Z,23.93
2018-02-21T21:18:48.674Z,23.47
2018-02-21T21:21:22.666Z,24.73
2018-02-21T21:23:57.201Z,25.23
2018-02-21T21:26:31.906Z,24.90
2018-02-21T21:29:06.657Z,24.30
2018-02-21T21:31:43.370Z,23.17
2018-02-21T21:34:18.629Z,24.73
2018-02-21T21:36:52.772Z,25.83
2018-02-21T21:39:26.740Z,25.20
2018-02-21T21:42:01.980Z,23.37
2018-02-21T21:44:37.785Z,25.00
2018-02-21T21:47:12.536Z,25.80
2018-02-21T21:49:47.519Z,26.77
2018-02-21T21:52:21.372Z,26.07
2018-02-21T21:54:55.984Z,24.93
2018-02-21T21:57:29.924Z,25.07
2018-02-21T22:00:04.904Z,25.77
2018-02-21T22:02:39.684Z,25.13
2018-02-21T22:05:13.457Z,24.83
2018-02-21T22:07:47.652Z,21.93
2018-02-21T22:10:21.887Z,26.10
2018-02-21T22:12:55.962Z,26.10
2018-02-21T22:15:30.451Z,24.67
2018-02-21T22:18:04.505Z,25.37
2018-02-21T22:20:39.376Z,24.43
2018-02-21T22:23:14.108Z,26.57
2018-02-21T22:25:48.524Z,25.03
2018-02-21T22:28:23.170Z,24.50
2018-02-21T22:30:58.273Z,25.60
2018-02-21T22:33:32.087Z,24.07
2018-02-21T22:36:06.612Z,24.87
2018-02-21T22:38:41.350Z,25.67
2018-02-21T22:41:15.868Z,25.60
2018-02-21T22:43:50.256Z,25.37
2018-02-21T22:46:24.964Z,24.53
2018-02-21T22:48:59.795Z,25.50
2018-02-21T22:51:34.552Z,25.17
2018-02-21T22:54:08.891Z,24.13
2018-02-21T22:56:43.511Z,24.70
2018-02-21T22:59:17.488Z,24.40
2018-02-21T23:01:52.317Z,23.60
2018-02-21T23:04:26.198Z,25.17
2018-02-21T23:07:01.770Z,22.80
2018-02-21T23:09:35.869Z,23.63
2018-02-21T23:12:09.660Z,22.90
2018-02-21T23:14:44.437Z,23.43
2018-02-21T23:17:18.247Z,23.13
2018-02-21T23:19:52.759Z,23.70
2018-02-21T23:22:27.368Z,22.03
2018-02-21T23:25:01.888Z,22.80
2018-02-21T23:27:36.469Z,23.57
2018-02-21T23:30:11.948Z,23.67
2018-02-21T23:32:45.856Z,22.83
2018-02-21T23:35:19.947Z,23.60
2018-02-21T23:37:54.905Z,23.77
2018-02-21T23:40:29.131Z,22.17
2018-02-21T23:43:02.949Z,23.73
2018-02-21T23:45:37.080Z,22.07
2018-02-21T23:48:11.197Z,22.53
2018-02-21T23:50:46.175Z,23.33
2018-02-21T23:53:20.187Z,22.67
2018-02-21T23:55:54.790Z,22.03
2018-02-21T23:58:29.627Z,21.17
